createdAt,value
2018-07-27T00:01:18.164Z,23.63
2018-07-27T00:03:46.747Z,23.79
2018-07-27T00:06:15.416Z,23.98
2018-07-27T00:08:44.060Z,24.03
2018-07-27T00:11:12.745Z,24.01
2018-07-27T00:13:41.442Z,23.99
2018-07-27T00:16:10.184Z,24.05
2018-07-27T00:18:38.796Z,24.06
2018-07-27T00:21:07.456Z,23.93
2018-07-27T00:23:36.166Z,23.85
2018-07-27T00:26:05.537Z,23.81
2018-07-27T00:28:34.168Z,23.75
2018-07-27T00:31:03.136Z,23.76
2018-07-27T00:33:31.759Z,23.79
2018-07-27T00:36:00.575Z,23.82
2018-07-27T00:38:29.191Z,23.75
2018-07-27T00:40:57.783Z,23.66
2018-07-27T00:43:26.358Z,23.55
2018-07-27T00:45:54.949Z,23.43
2018-07-27T00:48:24.546Z,23.36
2018-07-27T00:50:53.143Z,23.40
2018-07-27T00:53:21.788Z,23.37
2018-07-27T00:55:50.469Z,23.33
2018-07-27T00:58:19.191Z,23.33
2018-07-27T01:00:47.880Z,23.42
2018-07-27T01:03:17.165Z,23.33
2018-07-27T01:05:45.876Z,23.25
2018-07-27T01:08:15.480Z,23.26
2018-07-27T01:10:44.217Z,23.26
2018-07-27T01:13:12.934Z,23.25
2018-07-27T01:15:41.868Z,23.17
2018-07-27T01:18:10.965Z,23.16
2018-07-27T01:20:40.767Z,23.07
2018-07-27T01:23:09.400Z,23.10
2018-07-27T01:25:38.600Z,22.99
2018-07-27T01:28:07.558Z,22.95
2018-07-27T01:30:36.905Z,22.97
2018-07-27T01:33:05.899Z,22.88
2018-07-27T01:35:34.598Z,22.74
2018-07-27T01:38:03.272Z,22.56
2018-07-27T01:40:31.982Z,22.51
2018-07-27T01:43:00.597Z,22.50
2018-07-27T01:45:29.271Z,22.45
2018-07-27T01:47:57.813Z,22.45
2018-07-27T01:50:26.447Z,22.44
2018-07-27T01:52:55.228Z,22.55
2018-07-27T01:55:24.317Z,22.59
2018-07-27T01:57:53.977Z,22.50
2018-07-27T02:00:22.991Z,22.46
2018-07-27T02:02:51.721Z,22.35
2018-07-27T02:05:20.582Z,22.40
2018-07-27T02:07:49.205Z,22.42
2018-07-27T02:10:17.838Z,22.35
2018-07-27T02:12:47.314Z,22.28
2018-07-27T02:15:16.951Z,22.29
2018-07-27T02:17:48.009Z,22.26
2018-07-27T02:20:16.818Z,22.28
2018-07-27T02:22:45.512Z,22.30
2018-07-27T02:25:14.169Z,22.17
2018-07-27T02:27:42.766Z,22.14
2018-07-27T02:30:11.696Z,22.15
2018-07-27T02:32:40.804Z,22.08
2018-07-27T02:35:10.391Z,21.98
2018-07-27T02:37:39.941Z,21.75
2018-07-27T02:40:08.564Z,21.69
2018-07-27T02:42:37.818Z,21.64
2018-07-27T02:45:06.896Z,21.61
2018-07-27T02:47:35.461Z,21.54
2018-07-27T02:50:04.653Z,21.42
2018-07-27T02:52:33.292Z,21.29
2018-07-27T02:55:01.889Z,21.24
2018-07-27T02:57:31.334Z,21.39
2018-07-27T03:00:00.268Z,21.40
2018-07-27T03:02:28.882Z,21.35
2018-07-27T03:04:57.726Z,20.95
2018-07-27T03:07:26.416Z,21.29
2018-07-27T03:09:55.036Z,21.26
2018-07-27T03:12:23.683Z,20.86
2018-07-27T03:14:52.378Z,20.99
2018-07-27T03:17:21.085Z,21.04
2018-07-27T03:19:49.710Z,21.14
2018-07-27T03:22:18.849Z,20.97
2018-07-27T03:24:48.333Z,20.93
2018-07-27T03:27:16.958Z,21.05
2018-07-27T03:29:45.569Z,20.99
2018-07-27T03:32:14.925Z,20.92
2018-07-27T03:34:43.626Z,21.13
2018-07-27T03:37:12.528Z,21.29
2018-07-27T03:39:41.152Z,21.02
2018-07-27T03:42:10.415Z,21.15
2018-07-27T03:44:38.948Z,21.28
2018-07-27T03:47:07.609Z,21.33
2018-07-27T03:49:37.544Z,21.38
2018-07-27T03:52:06.125Z,21.32
2018-07-27T03:54:34.810Z,21.23
2018-07-27T03:57:03.812Z,21.24
2018-07-27T03:59:33.302Z,21.22
2018-07-27T04:02:02.023Z,21.18
2018-07-27T04:04:30.661Z,21.02
2018-07-27T04:06:59.323Z,20.91
2018-07-27T04:09:28.857Z,20.94
2018-07-27T04:11:57.466Z,20.83
2018-07-27T04:14:26.332Z,20.85
2018-07-27T04:16:55.008Z,20.90
2018-07-27T04:19:24.379Z,20.96
2018-07-27T04:21:53.097Z,21.02
2018-07-27T04:24:21.688Z,21.05
2018-07-27T04:26:50.687Z,21.05
2018-07-27T04:29:19.332Z,21.15
2018-07-27T04:31:48.691Z,21.18
2018-07-27T04:34:17.566Z,21.20
2018-07-27T04:36:46.605Z,21.21
2018-07-27T04:39:16.102Z,21.18
2018-07-27T04:41:45.063Z,21.22
2018-07-27T04:44:14.400Z,21.27
2018-07-27T04:46:43.121Z,21.35
2018-07-27T04:49:11.738Z,21.31
2018-07-27T04:51:40.472Z,21.27
2018-07-27T04:54:09.109Z,21.36
2018-07-27T04:56:37.842Z,21.44
2018-07-27T04:59:11.175Z,21.53
2018-07-27T05:01:39.781Z,21.65
2018-07-27T05:04:08.548Z,21.71
2018-07-27T05:06:37.591Z,21.69
2018-07-27T05:09:13.186Z,21.64
2018-07-27T05:11:42.219Z,21.58
2018-07-27T05:14:10.815Z,21.61
2018-07-27T05:16:39.420Z,21.60
2018-07-27T05:19:08.027Z,21.59
2018-07-27T05:21:37.020Z,21.58
2018-07-27T05:24:05.919Z,21.67
2018-07-27T05:26:34.610Z,21.74
2018-07-27T05:29:03.303Z,21.82
2018-07-27T05:31:33.150Z,21.90
2018-07-27T05:34:01.818Z,21.98
2018-07-27T05:36:30.466Z,22.08
2018-07-27T05:38:59.520Z,22.14
2018-07-27T05:41:28.241Z,22.27
2018-07-27T05:43:56.862Z,22.34
2018-07-27T05:46:25.582Z,22.39
2018-07-27T05:48:54.257Z,22.50
2018-07-27T05:51:22.859Z,22.61
2018-07-27T05:53:51.692Z,22.78
2018-07-27T05:56:20.330Z,22.87
2018-07-27T05:58:49.040Z,22.95
2018-07-27T06:01:17.749Z,23.04
2018-07-27T06:03:46.294Z,23.15
2018-07-27T06:06:15.863Z,23.20
2018-07-27T06:08:44.699Z,23.21
2018-07-27T06:11:13.646Z,23.26
2018-07-27T06:13:42.264Z,23.40
2018-07-27T06:16:11.204Z,23.52
2018-07-27T06:18:39.849Z,23.66
2018-07-27T06:21:08.767Z,23.74
2018-07-27T06:23:37.779Z,23.84
2018-07-27T06:26:07.101Z,23.91
2018-07-27T06:28:35.742Z,24.05
2018-07-27T06:31:05.166Z,24.10
2018-07-27T06:33:33.841Z,24.25
2018-07-27T06:36:02.788Z,24.42
2018-07-27T06:38:31.441Z,24.59
2018-07-27T06:41:00.063Z,24.67
2018-07-27T06:43:28.983Z,24.75
2018-07-27T06:45:57.675Z,24.77
2018-07-27T06:48:26.690Z,24.90
2018-07-27T06:50:55.410Z,24.99
2018-07-27T06:53:24.371Z,25.03
2018-07-27T06:55:53.021Z,25.07
2018-07-27T06:58:21.653Z,25.10
2018-07-27T07:00:50.399Z,25.08
2018-07-27T07:03:19.484Z,25.14
2018-07-27T07:05:48.140Z,25.24
2018-07-27T07:08:16.771Z,25.34
2018-07-27T07:10:45.772Z,25.33
2018-07-27T07:13:14.426Z,25.41
2018-07-27T07:15:43.123Z,25.41
2018-07-27T07:18:11.823Z,25.45
2018-07-27T07:20:40.525Z,25.61
2018-07-27T07:23:09.216Z,25.74
2018-07-27T07:25:38.064Z,25.87
2018-07-27T07:28:06.774Z,26.05
2018-07-27T07:30:36.039Z,26.24
2018-07-27T07:33:04.739Z,26.40
2018-07-27T07:35:33.633Z,26.45
2018-07-27T07:38:02.366Z,26.58
2018-07-27T07:40:31.008Z,26.68
2018-07-27T07:42:59.625Z,26.79
2018-07-27T07:45:28.346Z,26.87
2018-07-27T07:47:57.032Z,27.02
2018-07-27T07:50:25.732Z,27.14
2018-07-27T07:52:54.387Z,27.23
2018-07-27T07:55:23.060Z,27.29
2018-07-27T07:57:51.815Z,27.33
2018-07-27T08:00:20.451Z,27.33
2018-07-27T08:02:49.088Z,27.51
2018-07-27T08:05:17.674Z,27.64
2018-07-27T08:07:46.927Z,27.77
2018-07-27T08:10:15.616Z,27.88
2018-07-27T08:12:44.215Z,28.00
2018-07-27T08:15:13.482Z,28.07
2018-07-27T08:17:42.233Z,28.11
2018-07-27T08:20:11.494Z,28.20
2018-07-27T08:22:40.210Z,28.21
2018-07-27T08:25:08.968Z,28.29
2018-07-27T08:27:37.593Z,28.36
2018-07-27T08:30:06.187Z,28.48
2018-07-27T08:32:34.820Z,28.57
2018-07-27T08:35:03.750Z,28.66
2018-07-27T08:37:32.531Z,28.74
2018-07-27T08:40:01.254Z,28.80
2018-07-27T08:42:30.409Z,28.94
2018-07-27T08:44:59.157Z,29.04
2018-07-27T08:47:27.941Z,29.15
2018-07-27T08:49:56.590Z,29.21
2018-07-27T08:52:25.284Z,29.29
2018-07-27T08:54:53.991Z,29.42
2018-07-27T08:57:22.649Z,29.53
2018-07-27T08:59:51.843Z,29.55
2018-07-27T09:02:20.488Z,29.69
2018-07-27T09:04:49.276Z,29.72
2018-07-27T09:07:17.990Z,29.88
2018-07-27T09:09:46.613Z,29.94
2018-07-27T09:12:15.321Z,29.93
2018-07-27T09:14:43.923Z,30.06
2018-07-27T09:17:12.650Z,30.13
2018-07-27T09:19:41.353Z,30.14
2018-07-27T09:22:10.655Z,30.18
2018-07-27T09:24:39.405Z,30.33
2018-07-27T09:27:08.086Z,30.44
2018-07-27T09:29:36.840Z,30.45
2018-07-27T09:32:05.564Z,30.46
2018-07-27T09:34:34.283Z,30.62
2018-07-27T09:37:02.919Z,30.62
2018-07-27T09:39:31.792Z,30.73
2018-07-27T09:42:00.485Z,30.87
2018-07-27T09:44:29.091Z,31.03
2018-07-27T09:46:57.821Z,31.08
2018-07-27T09:49:26.553Z,31.14
2018-07-27T09:51:55.263Z,31.21
2018-07-27T09:54:23.920Z,31.34
2018-07-27T09:56:52.878Z,31.42
2018-07-27T09:59:21.625Z,31.39
2018-07-27T10:01:50.316Z,31.38
2018-07-27T10:04:18.997Z,31.30
2018-07-27T10:06:47.735Z,31.37
2018-07-27T10:09:16.589Z,31.45
2018-07-27T10:11:45.249Z,31.60
2018-07-27T10:14:13.926Z,31.74
2018-07-27T10:16:42.535Z,31.74
2018-07-27T10:19:11.198Z,31.72
2018-07-27T10:21:39.828Z,31.71
2018-07-27T10:24:08.681Z,31.84
2018-07-27T10:26:37.366Z,31.89
2018-07-27T10:29:06.166Z,31.85
2018-07-27T10:31:34.793Z,31.92
2018-07-27T10:34:03.493Z,32.05
2018-07-27T10:36:32.476Z,32.31
2018-07-27T10:39:01.373Z,32.44
2018-07-27T10:41:30.077Z,32.57
2018-07-27T10:43:59.049Z,32.60
2018-07-27T10:46:27.787Z,32.54
2018-07-27T10:48:56.436Z,32.50
2018-07-27T10:51:25.085Z,32.59
2018-07-27T10:53:54.288Z,32.63
2018-07-27T10:56:22.987Z,32.81
2018-07-27T10:58:51.563Z,32.92
2018-07-27T11:01:20.333Z,32.66
2018-07-27T11:03:48.919Z,32.62
2018-07-27T11:06:18.239Z,32.65
2018-07-27T11:08:46.976Z,32.46
2018-07-27T11:11:15.713Z,32.40
2018-07-27T11:13:45.293Z,32.28
2018-07-27T11:16:13.974Z,32.20
2018-07-27T11:18:42.710Z,32.10
2018-07-27T11:21:11.777Z,32.33
2018-07-27T11:23:40.562Z,32.53
2018-07-27T11:26:09.626Z,32.72
2018-07-27T11:28:38.666Z,32.81
2018-07-27T11:31:07.996Z,33.02
2018-07-27T11:33:36.677Z,33.01
2018-07-27T11:36:05.478Z,32.91
2018-07-27T11:38:34.483Z,32.88
2018-07-27T11:41:03.187Z,33.02
2018-07-27T11:43:32.082Z,33.17
2018-07-27T11:46:00.910Z,33.35
2018-07-27T11:48:29.622Z,33.43
2018-07-27T11:50:58.339Z,33.40
2018-07-27T11:53:26.972Z,33.24
2018-07-27T11:55:55.789Z,33.31
2018-07-27T11:58:24.686Z,33.36
2018-07-27T12:00:53.522Z,33.44
2018-07-27T12:03:24.113Z,33.54
2018-07-27T12:05:52.836Z,33.47
2018-07-27T12:08:22.626Z,33.37
2018-07-27T12:10:51.349Z,33.18
2018-07-27T12:13:20.458Z,33.16
2018-07-27T12:15:49.492Z,33.23
2018-07-27T12:18:18.480Z,33.15
2018-07-27T12:23:58.578Z,33.27
2018-07-27T12:26:29.409Z,33.61
2018-07-27T12:28:58.141Z,33.68
2018-07-27T12:31:26.852Z,33.87
2018-07-27T12:33:55.844Z,34.09
2018-07-27T12:36:24.485Z,34.28
2018-07-27T12:38:53.551Z,34.26
2018-07-27T12:41:22.147Z,34.20
2018-07-27T12:43:50.970Z,34.15
2018-07-27T12:46:19.635Z,34.59
2018-07-27T12:48:48.276Z,35.27
2018-07-27T12:51:17.700Z,35.90
2018-07-27T12:53:46.281Z,35.65
2018-07-27T12:56:15.885Z,35.46
2018-07-27T12:58:44.471Z,35.43
2018-07-27T13:01:13.088Z,37.13
2018-07-27T13:03:41.756Z,38.79
2018-07-27T13:06:10.594Z,39.67
2018-07-27T13:08:39.440Z,39.48
2018-07-27T13:11:08.172Z,39.12
2018-07-27T13:13:36.790Z,39.90
2018-07-27T13:16:05.769Z,39.60
2018-07-27T13:18:34.268Z,39.66
2018-07-27T13:21:02.934Z,39.67
2018-07-27T13:23:31.512Z,39.70
2018-07-27T13:28:40.833Z,37.33
2018-07-27T13:31:10.194Z,37.22
2018-07-27T13:33:39.841Z,37.28
2018-07-27T13:36:08.457Z,37.97
2018-07-27T13:38:37.091Z,39.26
2018-07-27T13:41:05.818Z,40.32
2018-07-27T13:43:34.442Z,40.88
2018-07-27T13:46:03.078Z,40.95
2018-07-27T13:48:31.687Z,40.66
2018-07-27T13:51:00.430Z,40.39
2018-07-27T13:53:29.126Z,40.06
2018-07-27T13:55:57.718Z,39.85
2018-07-27T13:58:26.339Z,39.48
2018-07-27T14:00:55.015Z,38.28
2018-07-27T14:03:23.709Z,37.72
2018-07-27T14:05:52.297Z,37.09
2018-07-27T14:08:21.171Z,36.38
2018-07-27T14:10:49.796Z,36.15
2018-07-27T14:13:18.438Z,35.61
2018-07-27T14:15:47.429Z,35.35
2018-07-27T14:18:16.076Z,34.93
2018-07-27T14:20:44.707Z,34.63
2018-07-27T14:23:13.343Z,34.41
2018-07-27T14:25:42.053Z,34.56
2018-07-27T14:28:11.674Z,35.41
2018-07-27T14:30:40.531Z,35.99
2018-07-27T14:33:09.283Z,36.31
2018-07-27T14:35:37.968Z,36.22
2018-07-27T14:38:06.551Z,36.03
2018-07-27T14:40:35.200Z,35.89
2018-07-27T14:43:03.826Z,35.99
2018-07-27T14:45:32.478Z,36.19
2018-07-27T14:48:01.224Z,35.84
2018-07-27T14:50:30.372Z,35.58
2018-07-27T14:52:59.024Z,35.57
2018-07-27T14:55:28.788Z,35.59
2018-07-27T14:57:57.461Z,35.78
2018-07-27T15:00:26.859Z,35.66
2018-07-27T15:02:55.943Z,35.51
2018-07-27T15:05:25.772Z,35.46
2018-07-27T15:07:54.505Z,35.52
2018-07-27T15:10:23.160Z,35.91
2018-07-27T15:12:51.921Z,35.66
2018-07-27T15:15:20.628Z,35.38
2018-07-27T15:17:49.492Z,35.28
2018-07-27T15:20:18.297Z,35.21
2018-07-27T15:22:46.996Z,35.09
2018-07-27T15:25:21.631Z,34.92
2018-07-27T15:27:50.529Z,35.02
2018-07-27T15:30:19.173Z,35.13
2018-07-27T15:32:48.694Z,35.00
2018-07-27T15:35:19.528Z,35.18
2018-07-27T15:37:48.162Z,35.22
2018-07-27T15:40:16.923Z,35.52
2018-07-27T15:42:45.887Z,35.31
2018-07-27T15:45:14.566Z,35.61
2018-07-27T15:47:43.228Z,35.46
2018-07-27T15:50:12.186Z,35.51
2018-07-27T15:52:41.482Z,35.40
2018-07-27T15:55:10.109Z,35.11
2018-07-27T15:57:40.297Z,34.92
2018-07-27T16:00:09.560Z,34.69
2018-07-27T16:02:38.293Z,34.46
2018-07-27T16:05:07.314Z,34.22
2018-07-27T16:07:36.264Z,34.17
2018-07-27T16:10:05.340Z,34.21
2018-07-27T16:12:34.045Z,34.16
2018-07-27T16:15:02.743Z,34.09
2018-07-27T16:17:31.429Z,33.93
2018-07-27T16:20:00.118Z,33.77
2018-07-27T16:22:28.754Z,33.76
2018-07-27T16:24:57.518Z,33.91
2018-07-27T16:27:26.777Z,33.87
2018-07-27T16:29:55.470Z,33.84
2018-07-27T16:32:24.427Z,33.84
2018-07-27T16:34:53.209Z,33.75
2018-07-27T16:37:21.890Z,33.61
2018-07-27T16:39:50.757Z,33.63
2018-07-27T16:42:19.378Z,33.58
2018-07-27T16:44:48.878Z,33.50
2018-07-27T16:47:18.258Z,33.38
2018-07-27T16:49:47.602Z,33.30
2018-07-27T16:52:16.296Z,33.23
2018-07-27T16:54:44.924Z,33.08
2018-07-27T16:57:13.642Z,33.08
2018-07-27T16:59:42.564Z,33.08
2018-07-27T17:02:11.342Z,33.02
2018-07-27T17:04:39.977Z,32.94
2018-07-27T17:07:08.635Z,32.86
2018-07-27T17:09:37.384Z,32.74
2018-07-27T17:12:06.417Z,32.78
2018-07-27T17:14:35.572Z,32.72
2018-07-27T17:17:04.476Z,32.69
2018-07-27T17:19:33.434Z,32.67
2018-07-27T17:22:02.365Z,32.55
2018-07-27T17:24:32.231Z,32.50
2018-07-27T17:27:01.050Z,32.36
2018-07-27T17:29:29.832Z,32.29
2018-07-27T17:31:58.551Z,32.28
2018-07-27T17:34:27.760Z,32.22
2018-07-27T17:36:57.709Z,32.13
2018-07-27T17:39:27.204Z,32.07
2018-07-27T17:41:56.237Z,32.04
2018-07-27T17:44:24.987Z,32.02
2018-07-27T17:46:53.701Z,31.95
2018-07-27T17:49:23.397Z,31.93
2018-07-27T17:51:52.458Z,31.99
2018-07-27T17:54:21.192Z,32.04
2018-07-27T17:56:49.828Z,32.02
2018-07-27T17:59:19.224Z,31.98
2018-07-27T18:01:47.979Z,31.86
2018-07-27T18:04:16.925Z,31.74
2018-07-27T18:06:45.668Z,31.56
2018-07-27T18:09:14.623Z,31.55
2018-07-27T18:11:43.297Z,31.54
2018-07-27T18:14:12.036Z,31.50
2018-07-27T18:16:40.769Z,31.50
2018-07-27T18:19:09.438Z,31.43
2018-07-27T18:21:38.544Z,31.40
2018-07-27T18:24:07.580Z,31.37
2018-07-27T18:26:36.502Z,31.36
2018-07-27T18:29:05.219Z,31.40
2018-07-27T18:31:33.912Z,31.38
2018-07-27T18:34:02.604Z,31.36
2018-07-27T18:36:31.298Z,31.36
2018-07-27T18:39:00.143Z,31.34
2018-07-27T18:41:28.761Z,31.29
2018-07-27T18:43:57.474Z,31.27
2018-07-27T18:46:26.182Z,31.22
2018-07-27T18:48:54.841Z,31.13
2018-07-27T18:51:23.556Z,31.02
2018-07-27T18:53:52.297Z,30.58
2018-07-27T18:56:21.043Z,30.13
2018-07-27T18:58:49.773Z,29.76
2018-07-27T19:01:18.555Z,29.63
2018-07-27T19:03:47.196Z,29.46
2018-07-27T19:06:15.854Z,29.39
2018-07-27T19:08:44.584Z,29.34
2018-07-27T19:11:13.479Z,29.32
2018-07-27T19:13:42.240Z,29.32
2018-07-27T19:16:11.500Z,29.36
2018-07-27T19:18:40.392Z,29.36
2018-07-27T19:21:09.433Z,29.35
2018-07-27T19:23:38.434Z,29.35
2018-07-27T19:26:07.108Z,29.31
2018-07-27T19:28:35.810Z,29.21
2018-07-27T19:31:04.613Z,29.19
2018-07-27T19:33:33.308Z,29.16
2018-07-27T19:36:02.177Z,29.11
2018-07-27T19:38:31.043Z,29.01
2018-07-27T19:40:59.744Z,29.03
2018-07-27T19:43:28.487Z,29.03
2018-07-27T19:45:57.503Z,28.98
2018-07-27T19:48:26.333Z,28.92
2018-07-27T19:50:56.000Z,28.94
2018-07-27T19:53:24.935Z,28.91
2018-07-27T19:55:53.628Z,28.91
2018-07-27T19:58:22.302Z,28.89
2018-07-27T20:00:51.386Z,28.88
2018-07-27T20:03:20.090Z,28.85
2018-07-27T20:05:49.170Z,28.80
2018-07-27T20:08:17.844Z,28.63
2018-07-27T20:10:46.646Z,28.67
2018-07-27T20:13:15.263Z,28.65
2018-07-27T20:15:44.544Z,28.65
2018-07-27T20:18:13.219Z,28.62
2018-07-27T20:20:41.954Z,28.59
2018-07-27T20:23:10.696Z,28.57
2018-07-27T20:25:40.198Z,28.56
2018-07-27T20:28:08.940Z,28.55
2018-07-27T20:30:37.619Z,28.30
2018-07-27T20:33:06.376Z,28.16
2018-07-27T20:35:35.387Z,28.24
2018-07-27T20:38:04.111Z,28.29
2018-07-27T20:40:32.820Z,28.29
2018-07-27T20:43:02.745Z,28.30
2018-07-27T20:45:31.461Z,28.28
2018-07-27T20:48:00.086Z,28.25
2018-07-27T20:50:28.787Z,28.23
2018-07-27T20:52:57.923Z,28.21
2018-07-27T20:55:26.645Z,28.17
2018-07-27T20:57:56.491Z,28.13
2018-07-27T21:00:25.412Z,28.11
2018-07-27T21:02:54.156Z,28.07
2018-07-27T21:05:22.816Z,28.01
2018-07-27T21:07:51.495Z,27.92
2018-07-27T21:10:20.152Z,27.94
2018-07-27T21:12:48.959Z,27.96
2018-07-27T21:15:17.887Z,27.99
2018-07-27T21:17:47.653Z,27.97
2018-07-27T21:20:16.511Z,27.95
2018-07-27T21:22:47.908Z,27.66
2018-07-27T21:25:17.178Z,27.87
2018-07-27T21:27:46.995Z,27.86
2018-07-27T21:30:17.780Z,27.83
2018-07-27T21:32:47.071Z,27.80
2018-07-27T21:35:17.555Z,27.72
2018-07-27T21:37:51.925Z,27.66
2018-07-27T21:40:22.005Z,27.62
2018-07-27T21:42:52.855Z,27.51
2018-07-27T21:45:29.145Z,27.49
2018-07-27T21:47:59.285Z,27.27
2018-07-27T21:50:28.854Z,27.26
2018-07-27T21:53:00.122Z,27.22
2018-07-27T21:55:32.857Z,27.19
2018-07-27T21:58:03.796Z,27.19
2018-07-27T22:00:35.224Z,27.23
2018-07-27T22:03:06.086Z,27.18
2018-07-27T22:05:35.168Z,27.19
2018-07-27T22:08:03.876Z,27.16
2018-07-27T22:10:34.819Z,27.04
2018-07-27T22:13:05.957Z,27.06
2018-07-27T22:15:36.914Z,27.01
2018-07-27T22:18:08.236Z,26.97
2018-07-27T22:20:39.060Z,26.85
2018-07-27T22:23:09.714Z,26.82
2018-07-27T22:25:38.529Z,26.71
2018-07-27T22:28:07.239Z,26.63
2018-07-27T22:30:36.916Z,26.51
2018-07-27T22:33:05.922Z,26.44
2018-07-27T22:35:37.036Z,26.41
2018-07-27T22:38:07.727Z,26.39
2018-07-27T22:40:38.927Z,26.28
2018-07-27T22:43:10.796Z,26.15
2018-07-27T22:45:40.930Z,26.18
2018-07-27T22:48:11.750Z,26.14
2018-07-27T22:50:44.099Z,26.19
2018-07-27T22:53:14.929Z,26.18
2018-07-27T22:55:47.482Z,26.15
2018-07-27T22:58:18.496Z,26.12
2018-07-27T23:00:49.478Z,26.14
2018-07-27T23:03:22.813Z,26.12
2018-07-27T23:05:52.178Z,26.05
2018-07-27T23:08:21.599Z,26.03
2018-07-27T23:10:50.953Z,25.96
2018-07-27T23:13:20.736Z,25.86
2018-07-27T23:15:50.268Z,25.78
2018-07-27T23:18:18.946Z,25.76
2018-07-27T23:20:47.641Z,25.69
2018-07-27T23:23:16.503Z,25.77
2018-07-27T23:25:45.181Z,25.80
2018-07-27T23:28:13.832Z,25.68
2018-07-27T23:30:42.491Z,25.62
2018-07-27T23:33:11.113Z,25.55
2018-07-27T23:35:39.794Z,25.62
2018-07-27T23:38:08.403Z,25.67
2018-07-27T23:40:37.004Z,25.53
2018-07-27T23:43:05.970Z,25.46
2018-07-27T23:45:34.619Z,25.36
2018-07-27T23:48:03.353Z,25.43
2018-07-27T23:50:31.975Z,25.39
2018-07-27T23:53:00.574Z,25.34
2018-07-27T23:55:29.647Z,25.22
2018-07-27T23:57:58.335Z,25.16
